Time;durP1;ratioP1;P1;durP2;ratioP2;P2;SDS_P1;SDS_P2;PMS_P1;PMS_P2;Temp;Humidity;BMP_temperature;BMP_pressure;BME280_temperature;BME280_humidity;BME280_pressure;Samples;Min_cycle;Max_cycle;Signal;HPM_P1;HPM_P2
2022/07/13 00:00:38;;;;;;;3.77;3.30;;;;;;;20.61;43.11;99779.09;5032761;28;20219;-58
2022/07/13 00:03:07;;;;;;;4.07;3.10;;;;;;;20.64;43.02;99775.56;5032363;28;20504;-58
2022/07/13 00:05:33;;;;;;;5.50;2.77;;;;;;;20.64;42.96;99779.03;5032972;28;20192;-57
2022/07/13 00:08:00;;;;;;;4.27;2.90;;;;;;;20.60;42.90;99780.00;5032948;28;20247;-58
2022/07/13 00:10:27;;;;;;;4.07;3.10;;;;;;;20.58;42.91;99776.56;5032529;28;20197;-57
2022/07/13 00:12:54;;;;;;;4.73;3.10;;;;;;;20.58;43.01;99776.56;5032663;28;20196;-57
2022/07/13 00:15:21;;;;;;;3.90;3.43;;;;;;;20.47;43.06;99774.16;5032907;28;20215;-58
2022/07/13 00:17:48;;;;;;;4.00;3.17;;;;;;;20.45;43.41;99780.28;5031835;28;20487;-58
2022/07/13 00:20:16;;;;;;;2.97;2.70;;;;;;;20.44;43.42;99789.00;5032287;28;20667;-57
2022/07/13 00:22:43;;;;;;;4.27;2.70;;;;;;;20.43;43.59;99780.34;5032567;28;20204;-58
2022/07/13 00:25:10;;;;;;;3.00;2.80;;;;;;;20.45;43.21;99783.78;5032438;28;20875;-57
2022/07/13 00:27:37;;;;;;;4.20;3.00;;;;;;;20.43;43.12;99793.41;5032185;28;20200;-58
2022/07/13 00:30:04;;;;;;;3.33;2.90;;;;;;;20.34;43.31;99777.03;5032219;28;20677;-58
2022/07/13 00:32:31;;;;;;;4.97;2.90;;;;;;;20.39;42.99;99785.63;5032301;28;20816;-58
2022/07/13 00:34:58;;;;;;;3.67;3.10;;;;;;;20.38;43.19;99789.97;5032513;28;20232;-58
2022/07/13 00:37:26;;;;;;;3.07;2.80;;;;;;;20.39;42.96;99794.31;5032146;28;20243;-58
2022/07/13 00:39:53;;;;;;;3.93;2.70;;;;;;;20.37;43.07;99787.41;5032001;28;20193;-57
2022/07/13 00:42:19;;;;;;;3.60;2.77;;;;;;;20.38;42.95;99781.31;5032125;28;20211;-57
2022/07/13 00:44:46;;;;;;;3.17;2.93;;;;;;;20.35;42.97;99777.03;5032173;28;20588;-58
2022/07/13 00:47:14;;;;;;;4.83;3.00;;;;;;;20.19;43.18;99769.47;5032154;28;20211;-58
2022/07/13 00:49:41;;;;;;;3.17;2.87;;;;;;;20.32;43.06;99779.69;5031891;28;20315;-58
2022/07/13 00:52:08;;;;;;;3.40;3.10;;;;;;;20.38;43.03;99779.53;5031891;28;20317;-58
2022/07/13 00:54:38;;;;;;;4.47;2.93;;;;;;;20.34;42.97;99783.13;5031836;28;20207;-58
2022/07/13 00:57:08;;;;;;;2.93;2.73;;;;;;;20.29;43.35;99791.91;5031808;28;20212;-58
2022/07/13 00:59:36;;;;;;;4.90;3.13;;;;;;;20.33;43.38;99773.56;5031514;28;20185;-57
2022/07/13 01:02:03;;;;;;;3.40;3.20;;;;;;;20.36;43.07;99775.25;5031329;28;20193;-58
2022/07/13 01:04:30;;;;;;;3.03;2.80;;;;;;;20.34;43.16;99777.03;5031418;28;20271;-57
2022/07/13 01:06:58;;;;;;;3.78;2.80;;;;;;;20.37;43.16;99771.75;5030536;28;20452;-57
2022/07/13 01:09:25;;;;;;;3.17;2.60;;;;;;;20.40;42.92;99766.47;5031268;28;20217;-57
2022/07/13 01:11:54;;;;;;;3.30;2.70;;;;;;;20.44;42.71;99766.38;5031225;28;20583;-57
2022/07/13 01:14:21;;;;;;;3.10;2.90;;;;;;;20.22;42.98;99744.16;5031082;28;20208;-58
2022/07/13 01:16:48;;;;;;;5.00;3.03;;;;;;;20.29;43.27;99774.50;5031263;28;20189;-57
2022/07/13 01:19:15;;;;;;;4.00;3.27;;;;;;;20.01;43.42;99739.34;5030977;28;20236;-57
2022/07/13 01:21:44;;;;;;;3.27;3.07;;;;;;;20.21;43.84;99781.59;5030962;28;20193;-58
2022/07/13 01:24:12;;;;;;;3.57;3.03;;;;;;;20.11;43.99;99779.19;5030908;28;20266;-58
2022/07/13 01:26:40;;;;;;;3.40;3.07;;;;;;;20.14;43.59;99772.13;5030974;28;20197;-57
2022/07/13 01:29:06;;;;;;;5.17;3.23;;;;;;;20.14;43.90;99772.13;5030020;28;20225;-58
2022/07/13 01:31:34;;;;;;;3.17;2.90;;;;;;;20.10;43.75;99770.50;5030815;28;20193;-57
2022/07/13 01:34:02;;;;;;;3.03;2.83;;;;;;;20.06;43.94;99768.81;5030838;28;20762;-58
2022/07/13 01:36:29;;;;;;;3.30;3.00;;;;;;;20.01;44.02;99763.69;5030795;28;20667;-57
2022/07/13 01:38:57;;;;;;;3.80;3.00;;;;;;;19.96;44.28;99759.44;5030336;28;20441;-58
2022/07/13 01:41:25;;;;;;;7.73;2.70;;;;;;;19.96;44.02;99751.59;5030683;28;20671;-58
2022/07/13 01:43:52;;;;;;;5.73;3.20;;;;;;;19.91;43.84;99761.25;5030804;28;20193;-59
2022/07/13 01:46:19;;;;;;;3.70;3.40;;;;;;;19.93;44.02;99751.66;5030533;28;20201;-58
2022/07/13 01:48:46;;;;;;;4.37;3.30;;;;;;;19.83;44.44;99750.94;5030482;28;20703;-58
2022/07/13 01:51:13;;;;;;;3.53;3.23;;;;;;;19.88;44.35;99758.69;5030366;28;20197;-58
2022/07/13 01:53:40;;;;;;;3.13;2.88;;;;;;;19.78;44.75;99760.59;5030152;28;20452;-57
2022/07/13 01:56:07;;;;;;;4.20;3.20;;;;;;;19.82;44.32;99756.19;5030362;28;20635;-57
2022/07/13 01:58:35;;;;;;;4.67;3.20;;;;;;;19.81;44.57;99757.06;5030589;28;20193;-58
2022/07/13 02:01:02;;;;;;;4.93;3.40;;;;;;;19.71;44.74;99760.72;5030299;28;20199;-57
2022/07/13 02:03:30;;;;;;;2.90;2.70;;;;;;;19.71;44.45;99758.97;5030400;28;20200;-57
2022/07/13 02:05:58;;;;;;;4.60;3.03;;;;;;;19.70;44.59;99754.66;5030374;28;20279;-57
2022/07/13 02:08:25;;;;;;;4.20;2.97;;;;;;;19.69;44.62;99760.75;5030637;28;20284;-58
2022/07/13 02:10:52;;;;;;;3.20;2.90;;;;;;;19.70;44.54;99761.59;5030859;28;20589;-58
2022/07/13 02:13:19;;;;;;;3.27;2.97;;;;;;;19.70;44.58;99761.59;5030614;28;20215;-58
2022/07/13 02:15:47;;;;;;;3.20;3.00;;;;;;;19.72;44.78;99759.84;5031160;28;20243;-58
2022/07/13 02:18:14;;;;;;;4.53;3.03;;;;;;;19.74;44.36;99760.69;5030146;28;20235;-58
2022/07/13 02:20:41;;;;;;;5.37;3.47;;;;;;;19.71;44.54;99750.28;5030388;28;20207;-58
2022/07/13 02:23:08;;;;;;;2.87;2.67;;;;;;;19.76;44.42;99753.69;5030603;28;20580;-58
2022/07/13 02:25:35;;;;;;;4.00;3.60;;;;;;;19.74;44.71;99752.84;5030553;28;20684;-58
2022/07/13 02:28:02;;;;;;;3.35;3.05;;;;;;;19.71;45.22;99756.38;5029506;28;20445;-58
2022/07/13 02:30:28;;;;;;;2.93;2.73;;;;;;;19.71;44.75;99755.50;5030332;28;20622;-58
2022/07/13 02:32:57;;;;;;;3.97;2.90;;;;;;;19.69;44.89;99759.91;5030182;28;20731;-59
2022/07/13 02:35:24;;;;;;;2.97;2.77;;;;;;;19.67;45.07;99757.31;5030384;28;20189;-58
2022/07/13 02:37:51;;;;;;;3.47;3.17;;;;;;;19.61;45.02;99754.81;5029953;28;20208;-58
2022/07/13 02:40:18;;;;;;;4.03;3.30;;;;;;;19.65;45.05;99755.59;5029803;28;20193;-58
2022/07/13 02:42:44;;;;;;;4.05;3.00;;;;;;;19.60;44.99;99754.81;5029067;28;20440;-58
2022/07/13 02:45:11;;;;;;;3.03;2.83;;;;;;;19.50;45.32;99733.28;5029999;28;20631;-58
2022/07/13 02:47:38;;;;;;;4.93;3.03;;;;;;;19.59;45.24;99758.31;5030007;28;20204;-58
2022/07/13 02:50:07;;;;;;;3.50;3.30;;;;;;;19.57;45.28;99758.34;5029825;28;20707;-58
2022/07/13 02:52:34;;;;;;;3.53;3.23;;;;;;;19.50;45.54;99768.91;5029775;28;20192;-58
2022/07/13 02:55:01;;;;;;;3.40;3.20;;;;;;;19.46;45.59;99768.06;5029767;28;20189;-58
2022/07/13 02:57:27;;;;;;;2.93;2.70;;;;;;;19.42;45.85;99766.38;5029822;28;20208;-58
2022/07/13 02:59:54;;;;;;;6.10;3.00;;;;;;;19.39;45.88;99759.47;5030255;28;20211;-58
2022/07/13 03:02:21;;;;;;;3.30;2.90;;;;;;;19.40;45.86;99756.00;5029748;28;20427;-58
2022/07/13 03:04:48;;;;;;;6.43;2.93;;;;;;;19.36;45.68;99761.25;5029690;28;20196;-60
2022/07/13 03:07:16;;;;;;;3.60;3.40;;;;;;;19.40;45.50;99753.38;5029761;28;20192;-58
2022/07/13 03:09:43;;;;;;;5.07;2.93;;;;;;;19.47;45.01;99750.69;5029558;28;20213;-57
2022/07/13 03:12:11;;;;;;;6.17;3.07;;;;;;;19.51;44.71;99753.22;5029476;28;20251;-58
2022/07/13 03:14:38;;;;;;;3.10;2.80;;;;;;;19.59;44.41;99755.69;5029482;28;20199;-58
2022/07/13 03:17:05;;;;;;;2.60;2.33;;;;;;;19.55;44.60;99751.44;5029501;28;20193;-58
2022/07/13 03:19:32;;;;;;;3.03;2.57;;;;;;;19.58;44.32;99761.81;5029390;28;20225;-58
2022/07/13 03:21:59;;;;;;;3.03;2.60;;;;;;;19.64;44.40;99746.91;5029649;28;20583;-57
2022/07/13 03:24:29;;;;;;;3.93;2.77;;;;;;;19.76;43.95;99762.38;5029457;28;20201;-57
2022/07/13 03:26:56;;;;;;;4.73;2.63;;;;;;;19.79;43.57;99746.69;5029455;28;20640;-58
2022/07/13 03:29:23;;;;;;;2.80;2.60;;;;;;;19.91;43.73;99762.09;5029427;28;20227;-58
2022/07/13 03:31:50;;;;;;;3.40;2.75;;;;;;;20.05;43.41;99772.31;5028507;28;20490;-57
2022/07/13 03:34:17;;;;;;;3.90;2.90;;;;;;;20.20;43.00;99763.34;5029584;28;20588;-57
2022/07/13 03:36:43;;;;;;;2.87;2.60;;;;;;;20.23;42.87;99763.28;5029158;28;20193;-57
2022/07/13 03:39:10;;;;;;;3.67;2.50;;;;;;;20.27;42.80;99760.59;5029450;28;20193;-58
2022/07/13 03:41:38;;;;;;;3.70;2.73;;;;;;;20.24;42.67;99752.88;5029272;28;20200;-57
2022/07/13 03:44:06;;;;;;;3.47;2.70;;;;;;;20.32;42.26;99758.81;5029524;28;20189;-58
2022/07/13 03:46:33;;;;;;;3.97;2.50;;;;;;;20.32;42.81;99757.94;5029313;28;20192;-58
2022/07/13 03:49:00;;;;;;;2.87;2.50;;;;;;;20.39;42.12;99769.97;5029196;28;20225;-58
2022/07/13 03:51:27;;;;;;;2.83;2.60;;;;;;;20.39;42.42;99763.00;5029235;28;20636;-57
2022/07/13 03:53:53;;;;;;;2.60;2.40;;;;;;;20.41;42.30;99761.22;5032088;28;20276;-57
2022/07/13 03:56:20;;;;;;;2.57;2.37;;;;;;;20.33;42.62;99764.84;5033036;28;20197;-57
2022/07/13 03:58:48;;;;;;;2.80;2.57;;;;;;;20.31;43.16;99766.63;5032786;28;20278;-57
2022/07/13 04:01:15;;;;;;;4.97;2.53;;;;;;;20.27;42.98;99759.78;5032675;28;20243;-57
2022/07/13 04:03:42;;;;;;;3.17;2.87;;;;;;;20.27;43.11;99757.16;5032513;28;20303;-58
2022/07/13 04:06:09;;;;;;;2.50;2.30;;;;;;;20.24;43.26;99754.56;5032587;28;20197;-58
2022/07/13 04:08:35;;;;;;;2.67;2.47;;;;;;;20.18;43.11;99754.69;5032331;28;20193;-57
2022/07/13 04:11:03;;;;;;;2.67;2.33;;;;;;;20.10;43.25;99756.56;5032200;28;20254;-58
2022/07/13 04:13:29;;;;;;;2.73;2.47;;;;;;;20.18;43.14;99759.91;5032435;28;20200;-58
2022/07/13 04:15:57;;;;;;;3.10;2.80;;;;;;;20.18;43.57;99766.00;5032427;28;20215;-58
2022/07/13 04:18:24;;;;;;;3.47;2.25;;;;;;;20.26;42.65;99764.13;5031847;28;20835;-58
2022/07/13 04:20:51;;;;;;;2.73;2.53;;;;;;;20.29;42.82;99764.06;5032255;28;20189;-58
2022/07/13 04:23:18;;;;;;;4.97;3.40;;;;;;;20.27;42.99;99762.38;5032026;28;20193;-57
2022/07/13 04:25:45;;;;;;;5.80;2.50;;;;;;;20.32;42.69;99758.81;5032301;28;20196;-57
2022/07/13 04:28:12;;;;;;;5.53;2.60;;;;;;;20.44;42.73;99762.91;5032098;28;20611;-58
2022/07/13 04:30:39;;;;;;;4.07;2.40;;;;;;;20.49;42.91;99774.97;5032065;28;20220;-58
2022/07/13 04:33:07;;;;;;;2.73;2.40;;;;;;;20.52;42.50;99766.22;5031939;28;20576;-58
2022/07/13 04:35:34;;;;;;;4.40;2.57;;;;;;;20.64;41.98;99773.81;5031639;28;20251;-57
2022/07/13 04:38:01;;;;;;;5.33;2.27;;;;;;;20.63;42.11;99774.69;5031488;28;20197;-58
2022/07/13 04:40:27;;;;;;;4.47;2.33;;;;;;;20.71;42.53;99772.78;5031754;28;20258;-58
2022/07/13 04:42:54;;;;;;;3.50;2.53;;;;;;;20.73;42.55;99772.78;5031406;28;20687;-58
2022/07/13 04:45:21;;;;;;;4.37;2.33;;;;;;;20.80;42.81;99772.63;5031636;28;20196;-57
2022/07/13 04:47:48;;;;;;;5.00;2.13;;;;;;;20.95;42.37;99774.06;5031505;28;20255;-58
2022/07/13 04:50:17;;;;;;;3.23;2.63;;;;;;;20.98;41.89;99774.88;5031121;28;20711;-58
2022/07/13 04:52:44;;;;;;;3.58;2.50;;;;;;;20.91;42.10;99780.22;5030740;28;20522;-58
2022/07/13 04:55:11;;;;;;;2.70;2.47;;;;;;;21.00;42.53;99769.59;5031547;28;20200;-57
2022/07/13 04:57:38;;;;;;;2.40;2.13;;;;;;;20.96;41.28;99778.38;5031346;28;20193;-57
2022/07/13 05:00:06;;;;;;;2.43;2.10;;;;;;;20.97;41.88;99778.34;5031264;28;20583;-57
2022/07/13 05:02:33;;;;;;;2.53;2.10;;;;;;;21.14;41.74;99781.50;5031109;28;20204;-57
2022/07/13 05:05:00;;;;;;;2.43;2.23;;;;;;;21.13;42.09;99781.53;5030071;28;20275;-57
2022/07/13 05:07:29;;;;;;;4.70;2.25;;;;;;;21.21;41.67;99790.06;5030489;28;20433;-57
2022/07/13 05:09:56;;;;;;;4.03;2.30;;;;;;;21.29;41.51;99782.91;5031231;28;20307;-57
2022/07/13 05:12:23;;;;;;;2.53;2.33;;;;;;;21.31;41.42;99780.25;5030980;28;20585;-58
2022/07/13 05:14:50;;;;;;;2.47;2.27;;;;;;;21.28;41.36;99786.44;5031019;28;20197;-57
2022/07/13 05:17:17;;;;;;;2.27;2.07;;;;;;;21.34;41.54;99786.28;5030560;28;20296;-58
2022/07/13 05:19:44;;;;;;;2.50;2.27;;;;;;;21.49;41.51;99803.38;5030224;28;20355;-58
2022/07/13 05:22:11;;;;;;;4.97;2.57;;;;;;;21.49;40.95;99787.69;5030828;28;20288;-58
2022/07/13 05:24:43;;;;;;;3.07;2.50;;;;;;;21.50;40.87;99792.03;5030592;28;20615;-58
2022/07/13 05:27:11;;;;;;;3.60;2.10;;;;;;;21.57;41.00;99789.22;5030642;28;20668;-58
2022/07/13 05:29:38;;;;;;;5.10;2.43;;;;;;;21.63;41.10;99789.06;5030658;28;20217;-57
2022/07/13 05:32:06;;;;;;;7.23;2.30;;;;;;;21.74;40.85;99784.44;5030659;28;20220;-57
2022/07/13 05:34:33;;;;;;;2.63;1.93;;;;;;;21.84;39.94;99792.91;5030961;28;20193;-57
2022/07/13 05:37:00;;;;;;;3.13;2.20;;;;;;;21.90;40.07;99790.19;5030748;28;20195;-58
2022/07/13 05:39:27;;;;;;;5.97;2.47;;;;;;;21.92;40.03;99791.00;5030532;28;20213;-58
2022/07/13 05:41:55;;;;;;;3.10;2.15;;;;;;;22.00;40.07;99791.66;5029424;28;20935;-58
2022/07/13 05:44:22;;;;;;;6.00;2.37;;;;;;;22.18;39.68;99787.72;5030521;28;20205;-58
2022/07/13 05:46:49;;;;;;;6.17;2.63;;;;;;;22.25;40.02;99792.75;5030597;28;20697;-58
2022/07/13 05:49:16;;;;;;;6.10;2.27;;;;;;;22.33;39.75;99782.94;5030286;28;20315;-58
2022/07/13 05:51:43;;;;;;;2.20;2.03;;;;;;;22.44;39.38;99785.28;5030295;28;20310;-56
2022/07/13 05:54:10;;;;;;;6.57;2.00;;;;;;;22.57;38.83;99788.44;5030226;28;20574;-58
2022/07/13 05:56:37;;;;;;;6.63;2.70;;;;;;;22.61;38.92;99783.06;5030270;28;20302;-57
2022/07/13 05:59:05;;;;;;;2.83;1.97;;;;;;;22.63;37.87;99783.91;5030357;28;20316;-57
2022/07/13 06:01:32;;;;;;;5.20;2.80;;;;;;;22.74;38.15;99783.63;5030269;28;20246;-59
2022/07/13 06:03:58;;;;;;;4.97;2.10;;;;;;;22.74;37.93;99783.63;5030576;28;20558;-58
2022/07/13 06:06:25;;;;;;;5.20;1.93;;;;;;;22.77;38.36;99773.88;5030513;28;20192;-57
2022/07/13 06:08:52;;;;;;;4.17;2.07;;;;;;;22.83;38.52;99778.94;5030068;28;20193;-57
2022/07/13 06:11:19;;;;;;;2.63;2.00;;;;;;;22.87;38.38;99775.34;5030013;28;20220;-57
2022/07/13 06:13:46;;;;;;;2.77;1.73;;;;;;;22.90;38.31;99762.16;5030126;28;20561;-57
2022/07/13 06:16:14;;;;;;;2.73;2.37;;;;;;;22.96;38.43;99765.50;5029279;28;20710;-57
2022/07/13 06:18:41;;;;;;;3.23;1.90;;;;;;;22.99;38.24;99765.41;5029419;28;20229;-57
2022/07/13 06:21:08;;;;;;;2.23;1.80;;;;;;;22.71;37.35;99720.81;5029717;28;20553;-57
2022/07/13 06:23:35;;;;;;;3.30;2.23;;;;;;;22.99;37.80;99773.28;5030072;28;20658;-58
2022/07/13 06:26:02;;;;;;;3.53;2.00;;;;;;;22.98;37.86;99761.06;5030001;28;20201;-57
2022/07/13 06:28:29;;;;;;;2.80;2.00;;;;;;;23.09;37.66;99769.47;5030056;28;20205;-58
2022/07/13 06:30:56;;;;;;;2.53;1.80;;;;;;;23.15;37.41;99779.78;5029800;28;20220;-57
2022/07/13 06:33:24;;;;;;;2.10;1.60;;;;;;;23.25;36.99;99774.19;5030125;28;20197;-57
2022/07/13 06:35:51;;;;;;;3.33;1.43;;;;;;;23.33;36.80;99769.56;5029758;28;20193;-57
2022/07/13 06:38:18;;;;;;;4.53;1.80;;;;;;;23.36;37.21;99768.63;5029716;28;20201;-58
2022/07/13 06:40:46;;;;;;;2.83;2.10;;;;;;;23.38;37.59;99764.22;5029810;28;20203;-58
2022/07/13 06:43:13;;;;;;;3.17;1.80;;;;;;;23.45;37.49;99755.25;5029520;28;20201;-58
2022/07/13 06:45:40;;;;;;;3.67;1.73;;;;;;;23.41;36.56;99775.47;5029471;28;20668;-58
2022/07/13 06:48:07;;;;;;;5.07;2.20;;;;;;;23.48;37.60;99763.03;5029647;28;20197;-57
2022/07/13 06:50:35;;;;;;;6.10;1.70;;;;;;;23.58;36.43;99756.56;5029550;28;20327;-58
2022/07/13 06:53:03;;;;;;;4.00;1.80;;;;;;;23.58;37.01;99759.19;5029513;28;20196;-58
2022/07/13 06:55:30;;;;;;;4.47;2.00;;;;;;;23.74;36.78;99763.03;5029171;28;20192;-58
2022/07/13 06:57:57;;;;;;;4.00;2.00;;;;;;;23.75;36.35;99759.50;5029446;28;20193;-58
2022/07/13 07:00:23;;;;;;;5.17;1.80;;;;;;;23.81;36.32;99742.72;5029367;28;20193;-58
2022/07/13 07:02:50;;;;;;;4.10;2.50;;;;;;;23.85;36.43;99749.53;5029625;28;20288;-57
2022/07/13 07:05:17;;;;;;;2.20;2.10;;;;;;;23.91;36.56;99751.97;5029027;28;20193;-57
2022/07/13 07:07:45;;;;;;;4.30;2.00;;;;;;;23.88;36.19;99744.19;5029412;28;20208;-58
2022/07/13 07:10:12;;;;;;;1.70;1.50;;;;;;;23.99;35.53;99740.31;5029178;28;20220;-57
2022/07/13 07:12:39;;;;;;;3.43;1.50;;;;;;;23.93;35.50;99743.13;5029543;28;20668;-57
2022/07/13 07:15:07;;;;;;;5.63;1.70;;;;;;;24.08;35.19;99752.25;5028733;28;20225;-57
2022/07/13 07:17:34;;;;;;;4.43;1.70;;;;;;;24.19;34.83;99754.53;5029122;28;20201;-57
2022/07/13 07:20:03;;;;;;;3.10;1.40;;;;;;;24.18;34.66;99750.19;5029310;28;20290;-58
2022/07/13 07:22:30;;;;;;;1.50;1.40;;;;;;;24.23;34.74;99754.38;5029234;28;20197;-57
2022/07/13 07:24:58;;;;;;;5.87;1.80;;;;;;;24.30;33.90;99750.63;5029187;28;20223;-57
2022/07/13 07:27:25;;;;;;;3.03;2.13;;;;;;;24.39;34.37;99745.03;5029623;28;20607;-57
2022/07/13 07:29:52;;;;;;;5.27;1.70;;;;;;;24.41;33.02;99747.63;5032459;28;20580;-58
2022/07/13 07:32:19;;;;;;;2.55;1.60;;;;;;;24.47;33.07;99757.91;5032726;28;20444;-58
2022/07/13 07:34:46;;;;;;;3.60;1.60;;;;;;;24.53;33.51;99750.66;5032523;28;20200;-58
2022/07/13 07:37:12;;;;;;;2.13;1.50;;;;;;;24.67;33.84;99745.75;5032673;28;20266;-57
2022/07/13 07:39:40;;;;;;;2.27;1.50;;;;;;;24.73;33.54;99741.19;5032535;28;20193;-58
2022/07/13 07:42:08;;;;;;;5.17;1.67;;;;;;;24.45;33.07;99688.78;5032344;28;20287;-58
2022/07/13 07:44:35;;;;;;;3.90;1.93;;;;;;;24.78;32.88;99739.25;5032560;28;20192;-57
2022/07/13 07:47:02;;;;;;;6.87;2.23;;;;;;;24.87;32.75;99739.78;5032398;28;20193;-57
2022/07/13 07:49:29;;;;;;;2.23;1.53;;;;;;;24.86;32.90;99751.19;5032168;28;20655;-58
2022/07/13 07:51:56;;;;;;;1.70;1.60;;;;;;;24.85;32.60;99744.25;5032334;28;20217;-58
2022/07/13 07:54:23;;;;;;;1.50;1.40;;;;;;;24.85;33.11;99752.16;5032456;28;20259;-57
2022/07/13 07:56:49;;;;;;;4.00;1.80;;;;;;;24.91;34.05;99741.41;5032148;28;20202;-57
2022/07/13 07:59:18;;;;;;;1.50;1.40;;;;;;;25.08;32.66;99714.44;5032570;28;20567;-57
2022/07/13 08:01:45;;;;;;;1.57;1.47;;;;;;;25.30;32.29;99743.41;5032140;28;20196;-58
2022/07/13 08:04:12;;;;;;;3.33;1.90;;;;;;;25.22;30.87;99746.31;5031951;28;20664;-58
2022/07/13 08:06:39;;;;;;;3.43;1.40;;;;;;;25.20;31.98;99753.41;5032332;28;20806;-60
2022/07/13 08:09:06;;;;;;;3.00;1.60;;;;;;;25.32;31.83;99759.97;5031924;28;20188;-58
2022/07/13 08:11:33;;;;;;;1.87;1.50;;;;;;;25.34;31.76;99748.47;5032301;28;20224;-59
2022/07/13 08:13:59;;;;;;;1.63;1.33;;;;;;;25.25;30.53;99743.56;5032107;28;20197;-58
2022/07/13 08:16:28;;;;;;;1.70;1.60;;;;;;;25.30;32.25;99746.84;5032178;28;20193;-58
2022/07/13 08:18:55;;;;;;;2.23;1.30;;;;;;;25.35;31.30;99758.09;5031395;28;20708;-58
2022/07/13 08:21:22;;;;;;;2.47;1.40;;;;;;;25.48;29.62;99761.97;5031069;28;20444;-58
2022/07/13 08:23:54;;;;;;;1.10;1.00;;;;;;;25.54;28.91;99752.97;5031853;28;20269;-59
2022/07/13 08:26:23;;;;;;;2.50;1.30;;;;;;;25.51;30.48;99755.72;5032059;28;20557;-59
2022/07/13 08:28:51;;;;;;;2.77;1.30;;;;;;;25.56;30.24;99757.25;5031401;28;20743;-58
2022/07/13 08:31:18;;;;;;;1.27;1.23;;;;;;;25.56;29.65;99751.97;5031240;28;20243;-58
2022/07/13 08:39:15;;;;;;;1.73;1.30;;;;;;;25.64;29.30;99747.25;5030980;28;20196;-57
2022/07/13 08:41:42;;;;;;;1.10;1.00;;;;;;;25.76;30.09;99745.91;5031349;28;20577;-58
2022/07/13 08:44:09;;;;;;;2.03;1.20;;;;;;;25.83;29.69;99749.13;5031352;28;20200;-57
2022/07/13 08:46:36;;;;;;;1.53;1.43;;;;;;;25.87;29.14;99748.94;5030733;28;20254;-57
2022/07/13 08:49:04;;;;;;;3.15;1.58;;;;;;;25.99;28.92;99747.53;5031149;28;20197;-57
2022/07/13 08:51:32;;;;;;;1.50;1.40;;;;;;;26.02;28.99;99743.00;5030891;28;20596;-57
2022/07/13 08:54:00;;;;;;;2.60;1.50;;;;;;;26.00;29.04;99739.59;5030325;28;20456;-58
2022/07/13 08:56:28;;;;;;;2.37;1.60;;;;;;;26.15;28.39;99736.31;5030525;28;20251;-59
2022/07/13 08:58:55;;;;;;;1.90;1.30;;;;;;;26.29;28.88;99730.44;5030565;28;20193;-57
2022/07/13 09:01:22;;;;;;;3.90;1.30;;;;;;;26.38;28.44;99745.88;5030760;28;20256;-58
2022/07/13 09:03:50;;;;;;;1.83;1.10;;;;;;;26.02;27.50;99692.97;5030289;28;20200;-57
2022/07/13 09:06:44;;;;;;;1.33;1.23;;;;;;;26.37;28.36;99749.41;5030689;28;20211;-57
2022/07/13 09:09:33;;;;;;;2.13;1.20;;;;;;;26.35;27.72;99751.28;5030326;28;20536;-57
2022/07/13 09:12:18;;;;;;;1.30;1.20;;;;;;;26.37;27.34;99736.22;5030434;28;20223;-58
2022/07/13 09:14:55;;;;;;;4.57;1.40;;;;;;;26.43;27.72;99756.19;5030842;28;20200;-58
2022/07/13 09:17:31;;;;;;;4.77;1.63;;;;;;;26.41;27.85;99742.25;5030414;28;20197;-58
2022/07/13 09:20:01;;;;;;;2.08;1.27;;;;;;;26.46;27.91;99745.53;5031069;28;20319;-57
2022/07/13 09:22:29;;;;;;;1.60;1.20;;;;;;;26.46;27.47;99749.00;5030805;28;20204;-57
2022/07/13 09:24:57;;;;;;;1.70;1.60;;;;;;;26.52;27.78;99748.75;5030452;28;20196;-58
2022/07/13 09:27:24;;;;;;;1.13;1.03;;;;;;;26.68;27.15;99743.63;5030124;28;20231;-58
2022/07/13 09:29:51;;;;;;;2.03;1.40;;;;;;;26.80;27.63;99743.97;5030363;28;20193;-59
2022/07/13 09:32:18;;;;;;;3.42;1.70;;;;;;;26.93;27.82;99734.56;5030221;28;20217;-57
2022/07/13 09:34:50;;;;;;;1.30;1.20;;;;;;;26.99;26.86;99748.41;5030104;28;20204;-58
2022/07/13 09:37:19;;;;;;;2.80;1.40;;;;;;;26.93;27.13;99747.75;5030361;28;20195;-57
2022/07/13 09:40:07;;;;;;;1.60;1.17;;;;;;;26.85;26.98;99749.03;5030109;28;20196;-57
2022/07/13 09:42:36;;;;;;;3.15;1.20;;;;;;;26.71;27.11;99733.81;5030478;28;20620;-58
2022/07/13 09:47:53;;;;;;;3.08;1.30;;;;;;;27.20;26.92;99736.81;5030137;28;20266;-58
2022/07/13 09:50:21;;;;;;;1.73;1.20;;;;;;;27.29;26.61;99733.75;5028865;28;20205;-58
2022/07/13 09:52:48;;;;;;;2.20;1.27;;;;;;;27.26;26.26;99729.47;5029816;28;20200;-57
2022/07/13 09:55:24;;;;;;;2.30;1.80;;;;;;;27.28;27.12;99729.38;5029791;28;20197;-57
2022/07/13 09:57:53;;;;;;;1.55;1.30;;;;;;;27.36;26.39;99722.81;5029838;28;20200;-58
2022/07/13 10:00:21;;;;;;;1.90;1.50;;;;;;;27.38;26.70;99728.91;5029082;28;20449;-58
2022/07/13 10:02:49;;;;;;;1.95;1.20;;;;;;;27.41;26.19;99715.56;5029782;28;20195;-57
2022/07/13 10:05:17;;;;;;;1.60;1.05;;;;;;;27.42;26.21;99712.00;5029885;28;20648;-58
2022/07/13 10:07:45;;;;;;;1.58;1.48;;;;;;;27.47;26.86;99706.47;5029876;28;20193;-57
2022/07/13 10:10:14;;;;;;;2.20;1.92;;;;;;;27.62;26.43;99704.88;5029761;28;20189;-58
2022/07/13 10:12:43;;;;;;;2.25;1.40;;;;;;;27.81;25.74;99703.88;5029434;28;20235;-58
2022/07/13 10:15:12;;;;;;;1.73;1.00;;;;;;;27.84;25.09;99697.59;5029358;28;20295;-58
2022/07/13 10:17:39;;;;;;;4.57;2.00;;;;;;;27.94;25.47;99698.81;5029417;28;20189;-58
2022/07/13 10:20:09;;;;;;;5.55;1.15;;;;;;;27.94;25.00;99693.53;5029536;28;20189;-58
2022/07/13 10:22:40;;;;;;;2.67;1.23;;;;;;;27.81;26.32;99688.03;5028870;28;20193;-58
2022/07/13 10:25:08;;;;;;;1.30;1.20;;;;;;;28.10;27.29;99673.38;5029267;28;20204;-59
2022/07/13 10:27:36;;;;;;;4.43;1.42;;;;;;;28.17;26.08;99669.44;5029354;28;20192;-58
2022/07/13 10:30:07;;;;;;;1.40;1.40;;;;;;;28.34;25.52;99682.63;5028975;28;20489;-57
2022/07/13 10:32:35;;;;;;;1.85;1.73;;;;;;;28.39;25.86;99680.59;5029126;28;20595;-57
2022/07/13 10:35:04;;;;;;;1.77;1.15;;;;;;;28.14;26.29;99669.63;5029075;28;20196;-58
2022/07/13 10:38:16;;;;;;;1.50;1.40;;;;;;;28.43;25.05;99673.38;5029433;28;20204;-58
2022/07/13 10:40:43;;;;;;;7.78;1.48;;;;;;;28.42;25.68;99672.50;5029371;28;20246;-58
2022/07/13 10:43:19;;;;;;;1.45;1.35;;;;;;;28.49;26.03;99676.50;5029625;28;20193;-58
2022/07/13 10:45:51;;;;;;;2.63;1.13;;;;;;;28.48;25.32;99676.59;5028222;28;20274;-59
2022/07/13 10:48:42;;;;;;;1.30;1.30;;;;;;;28.60;25.33;99673.28;5028658;28;20236;-65
2022/07/13 10:51:20;;;;;;;3.63;1.20;;;;;;;28.67;25.11;99670.28;5027983;28;20448;-66
2022/07/13 10:54:10;;;;;;;3.10;1.23;;;;;;;28.83;24.80;99661.47;5031390;28;20203;-66
2022/07/13 10:56:37;;;;;;;1.55;1.45;;;;;;;28.84;24.93;99658.75;5029749;28;20243;-65
2022/07/13 10:59:06;;;;;;;4.10;1.52;;;;;;;28.95;25.10;99658.97;5029453;28;20258;-65
2022/07/13 11:01:42;;;;;;;4.72;1.40;;;;;;;28.92;25.76;99659.19;5030621;28;20193;-65
2022/07/13 11:04:11;;;;;;;2.00;1.80;;;;;;;29.04;26.39;99660.25;5033899;28;20200;-66
2022/07/13 11:06:38;;;;;;;3.90;1.58;;;;;;;29.18;25.27;99650.59;5033560;28;20193;-65
2022/07/13 11:09:14;;;;;;;2.47;1.65;;;;;;;29.23;25.25;99643.28;5033651;28;20673;-65
2022/07/13 11:11:48;;;;;;;2.63;1.63;;;;;;;29.27;25.25;99637.81;5032961;28;20247;-66
2022/07/13 11:14:47;;;;;;;3.13;1.48;;;;;;;29.32;25.21;99651.63;5033473;28;20193;-64
2022/07/13 11:17:16;;;;;;;7.47;2.00;;;;;;;29.34;25.27;99639.19;5033527;28;20205;-66
2022/07/13 11:19:54;;;;;;;2.33;1.50;;;;;;;29.43;25.39;99649.22;5033088;28;20259;-65
2022/07/13 11:22:21;;;;;;;4.25;1.42;;;;;;;29.34;25.43;99633.88;5032816;28;20181;-66
2022/07/13 11:25:16;;;;;;;3.10;1.73;;;;;;;29.46;25.19;99626.06;5032147;28;20440;-66
2022/07/13 11:28:15;;;;;;;3.10;1.85;;;;;;;29.87;25.14;99625.41;5033250;28;20208;-65
2022/07/13 11:30:52;;;;;;;2.45;1.70;;;;;;;29.94;25.20;99632.06;4999900;28;20216;-65
2022/07/13 11:33:21;;;;;;;5.40;1.70;;;;;;;29.93;24.52;99627.69;5033042;28;20204;-65
2022/07/13 11:35:48;;;;;;;2.03;1.60;;;;;;;30.02;24.59;99621.84;5032756;28;20201;-65
2022/07/13 11:38:16;;;;;;;3.03;1.73;;;;;;;30.06;22.74;99634.81;5032961;28;20189;-66
2022/07/13 11:40:44;;;;;;;1.33;1.20;;;;;;;29.97;22.68;99631.88;5032659;28;20231;-66
2022/07/13 11:43:12;;;;;;;1.65;1.35;;;;;;;29.75;22.65;99627.81;5032549;28;20192;-66
2022/07/13 11:45:40;;;;;;;2.92;1.55;;;;;;;29.85;23.17;99620.22;5032541;28;20197;-65
2022/07/13 11:48:12;;;;;;;3.58;1.20;;;;;;;29.95;23.18;99620.50;5032388;28;20687;-66